createdAt,value
2018-03-08T00:00:08.578Z,97726.80
2018-03-08T00:02:36.882Z,97729.55
2018-03-08T00:05:05.944Z,97725.21
2018-03-08T00:07:34.246Z,97737.37
2018-03-08T00:10:02.506Z,97734.95
2018-03-08T00:12:30.801Z,97735.08
2018-03-08T00:14:59.067Z,97735.98
2018-03-08T00:17:27.387Z,97742.16
2018-03-08T00:19:55.648Z,97742.42
2018-03-08T00:22:23.986Z,97745.97
2018-03-08T00:24:52.261Z,97747.28
2018-03-08T00:27:20.559Z,97751.25
2018-03-08T00:29:48.804Z,97758.33
2018-03-08T00:32:17.179Z,97756.22
2018-03-08T00:34:45.448Z,97718.64
2018-03-08T00:37:13.737Z,97765.92
2018-03-08T00:39:42.042Z,97768.16
2018-03-08T00:42:10.294Z,97763.98
2018-03-08T00:44:38.616Z,97775.63
2018-03-08T00:47:06.872Z,97777.19
2018-03-08T00:49:35.166Z,97781.91
2018-03-08T00:52:03.429Z,97775.91
2018-03-08T00:54:32.532Z,97774.98
2018-03-08T00:57:00.804Z,97765.95
2018-03-08T00:59:29.320Z,97770.29
2018-03-08T01:01:57.635Z,97767.42
2018-03-08T01:04:25.956Z,97773.70
2018-03-08T01:06:54.404Z,97772.00
2018-03-08T01:09:22.707Z,97770.56
2018-03-08T01:11:50.997Z,97770.80
2018-03-08T01:14:19.334Z,97776.18
2018-03-08T01:16:47.601Z,97782.37
2018-03-08T01:19:15.921Z,97785.76
2018-03-08T01:21:44.212Z,97785.61
2018-03-08T01:24:12.941Z,97780.12
2018-03-08T01:26:41.227Z,97787.86
2018-03-08T01:29:09.555Z,97786.55
2018-03-08T01:31:37.823Z,97793.78
2018-03-08T01:34:06.100Z,97796.00
2018-03-08T01:36:34.395Z,97795.33
2018-03-08T01:39:02.703Z,97794.94
2018-03-08T01:41:31.009Z,97777.91
2018-03-08T01:43:59.284Z,97794.05
2018-03-08T01:46:27.621Z,97790.23
2018-03-08T01:48:55.914Z,97782.24
2018-03-08T01:51:24.200Z,97790.63
2018-03-08T01:53:52.489Z,97789.46
2018-03-08T01:56:20.774Z,97791.17
2018-03-08T01:58:49.077Z,97793.65
2018-03-08T02:01:17.372Z,97790.23
2018-03-08T02:03:45.678Z,97793.40
2018-03-08T02:06:13.969Z,97789.19
2018-03-08T02:08:42.348Z,97788.13
2018-03-08T02:11:10.655Z,97786.84
2018-03-08T02:13:39.813Z,97788.13
2018-03-08T02:16:08.104Z,97790.63
2018-03-08T02:18:36.375Z,97786.30
2018-03-08T02:21:05.003Z,97792.45
2018-03-08T02:23:33.242Z,97791.41
2018-03-08T02:26:01.565Z,97789.86
2018-03-08T02:28:29.968Z,97791.27
2018-03-08T02:30:58.299Z,97787.61
2018-03-08T02:33:26.581Z,97789.05
2018-03-08T02:35:54.849Z,97787.98
2018-03-08T02:38:23.510Z,97777.61
2018-03-08T02:40:51.801Z,97784.59
2018-03-08T02:43:20.090Z,97789.81
2018-03-08T02:45:48.369Z,97794.42
2018-03-08T02:48:16.681Z,97794.81
2018-03-08T02:50:44.942Z,97790.86
2018-03-08T02:53:13.248Z,97796.08
2018-03-08T02:55:41.541Z,97802.91
2018-03-08T02:58:09.858Z,97809.47
2018-03-08T03:00:38.111Z,97804.89
2018-03-08T03:03:06.631Z,97812.89
2018-03-08T03:05:34.873Z,97813.68
2018-03-08T03:08:03.216Z,97806.45
2018-03-08T03:10:31.603Z,97805.66
2018-03-08T03:12:59.896Z,97808.68
2018-03-08T03:15:28.235Z,97808.64
2018-03-08T03:17:56.533Z,97800.77
2018-03-08T03:20:24.804Z,97803.79
2018-03-08T03:22:53.104Z,97805.50
2018-03-08T03:25:21.387Z,97800.92
2018-03-08T03:27:49.681Z,97817.23
2018-03-08T03:30:17.999Z,97813.80
2018-03-08T03:32:46.285Z,97812.62
2018-03-08T03:35:14.575Z,97813.14
2018-03-08T03:37:42.842Z,97819.58
2018-03-08T03:40:11.196Z,97823.14
2018-03-08T03:42:39.432Z,97823.53
2018-03-08T03:45:07.745Z,97817.74
2018-03-08T03:47:36.085Z,97818.16
2018-03-08T03:50:04.367Z,97819.88
2018-03-08T03:52:32.646Z,97812.66
2018-03-08T03:55:00.956Z,97814.88
2018-03-08T03:57:29.243Z,97814.89
2018-03-08T03:59:57.551Z,97814.10
2018-03-08T04:02:25.844Z,97816.20
2018-03-08T04:04:54.131Z,97814.23
2018-03-08T04:07:22.483Z,97817.50
2018-03-08T04:09:50.778Z,97822.22
2018-03-08T04:12:19.045Z,97827.45
2018-03-08T04:14:47.352Z,97827.72
2018-03-08T04:17:15.664Z,97833.24
2018-03-08T04:19:43.964Z,97828.27
2018-03-08T04:22:12.319Z,97828.80
2018-03-08T04:24:40.652Z,97835.98
2018-03-08T04:27:08.927Z,97826.41
2018-03-08T04:29:37.235Z,97836.78
2018-03-08T04:32:05.513Z,97840.84
2018-03-08T04:34:33.785Z,97836.14
2018-03-08T04:37:02.072Z,97832.61
2018-03-08T04:39:30.343Z,97839.66
2018-03-08T04:41:58.650Z,97836.80
2018-03-08T04:44:26.891Z,97836.01
2018-03-08T04:46:55.202Z,97831.27
2018-03-08T04:49:23.440Z,97837.05
2018-03-08T04:51:51.796Z,97834.42
2018-03-08T04:54:20.270Z,97837.98
2018-03-08T04:56:48.587Z,97846.77
2018-03-08T04:59:16.871Z,97842.28
2018-03-08T05:01:45.211Z,97837.02
2018-03-08T05:04:13.499Z,97831.81
2018-03-08T05:06:41.807Z,97828.66
2018-03-08T05:09:10.081Z,97836.78
2018-03-08T05:11:38.377Z,97836.22
2018-03-08T05:14:06.678Z,97833.19
2018-03-08T05:16:34.956Z,97830.72
2018-03-08T05:19:03.222Z,97831.11
2018-03-08T05:21:31.519Z,97841.47
2018-03-08T05:23:59.808Z,97846.20
2018-03-08T05:26:28.106Z,97837.80
2018-03-08T05:28:56.379Z,97839.77
2018-03-08T05:31:24.681Z,97839.22
2018-03-08T05:33:52.997Z,97831.76
2018-03-08T05:36:21.389Z,97836.45
2018-03-08T05:38:49.691Z,97834.27
2018-03-08T05:41:18.016Z,97827.28
2018-03-08T05:43:46.325Z,97848.00
2018-03-08T05:46:14.593Z,97855.88
2018-03-08T05:48:42.930Z,97862.18
2018-03-08T05:51:11.218Z,97868.98
2018-03-08T05:53:39.495Z,97859.13
2018-03-08T05:56:07.739Z,97864.38
2018-03-08T05:58:36.061Z,97867.64
2018-03-08T06:01:04.328Z,97866.75
2018-03-08T06:03:32.629Z,97869.61
2018-03-08T06:06:00.960Z,97863.72
2018-03-08T06:08:29.242Z,97862.25
2018-03-08T06:10:57.595Z,97862.16
2018-03-08T06:13:25.896Z,97878.80
2018-03-08T06:15:54.164Z,97867.26
2018-03-08T06:18:22.509Z,97856.93
2018-03-08T06:20:50.783Z,97859.25
2018-03-08T06:23:19.089Z,97858.77
2018-03-08T06:25:47.362Z,97865.45
2018-03-08T06:28:15.715Z,97864.66
2018-03-08T06:30:44.016Z,97864.82
2018-03-08T06:33:12.319Z,97869.17
2018-03-08T06:35:40.934Z,97869.55
2018-03-08T06:38:09.228Z,97865.34
2018-03-08T06:40:37.666Z,97880.55
2018-03-08T06:43:05.914Z,97870.08
2018-03-08T06:45:34.239Z,97851.96
2018-03-08T06:48:02.640Z,97879.25
2018-03-08T06:50:31.875Z,97887.63
2018-03-08T06:53:00.183Z,97878.20
2018-03-08T06:55:28.452Z,97874.28
2018-03-08T06:57:57.873Z,97875.34
2018-03-08T07:00:27.179Z,97875.36
2018-03-08T07:02:55.510Z,97886.63
2018-03-08T07:05:23.883Z,97888.31
2018-03-08T07:07:52.120Z,97890.93
2018-03-08T07:10:21.079Z,97886.91
2018-03-08T07:12:49.432Z,97883.89
2018-03-08T07:15:17.732Z,97881.91
2018-03-08T07:17:46.039Z,97888.45
2018-03-08T07:20:14.387Z,97895.16
2018-03-08T07:22:42.686Z,97898.45
2018-03-08T07:25:10.985Z,97899.89
2018-03-08T07:27:39.300Z,97911.05
2018-03-08T07:30:07.617Z,97911.69
2018-03-08T07:32:35.880Z,97906.05
2018-03-08T07:35:05.188Z,97903.16
2018-03-08T07:37:33.561Z,97900.55
2018-03-08T07:40:01.851Z,97907.09
2018-03-08T07:42:30.160Z,97912.23
2018-03-08T07:44:58.432Z,97911.70
2018-03-08T07:47:26.687Z,97906.58
2018-03-08T07:49:54.944Z,97906.19
2018-03-08T07:52:24.401Z,97906.84
2018-03-08T07:54:52.630Z,97904.48
2018-03-08T07:57:20.913Z,97896.20
2018-03-08T07:59:49.195Z,97903.56
2018-03-08T08:02:17.468Z,97902.66
2018-03-08T08:04:57.417Z,97896.22
2018-03-08T08:07:37.559Z,97898.05
2018-03-08T08:10:05.833Z,97897.78
2018-03-08T08:12:34.183Z,97879.41
2018-03-08T08:15:02.806Z,97892.91
2018-03-08T08:17:31.186Z,97903.93
2018-03-08T08:19:59.563Z,97895.11
2018-03-08T08:22:27.874Z,97902.44
2018-03-08T08:24:56.128Z,97895.73
2018-03-08T08:27:24.439Z,97893.73
2018-03-08T08:29:52.682Z,97898.88
2018-03-08T08:32:21.147Z,97898.19
2018-03-08T08:34:49.426Z,97912.58
2018-03-08T08:37:17.712Z,97909.95
2018-03-08T08:39:45.992Z,97904.81
2018-03-08T08:42:14.268Z,97899.40
2018-03-08T08:44:42.737Z,97901.50
2018-03-08T08:47:11.310Z,97901.89
2018-03-08T08:49:39.716Z,97903.33
2018-03-08T08:52:08.012Z,97908.88
2018-03-08T08:54:36.384Z,97911.11
2018-03-08T08:57:04.768Z,97918.98
2018-03-08T08:59:33.125Z,97911.89
2018-03-08T09:02:01.481Z,97910.18
2018-03-08T09:04:30.639Z,97908.19
2018-03-08T09:06:58.957Z,97905.44
2018-03-08T09:09:27.259Z,97914.98
2018-03-08T09:11:55.532Z,97908.14
2018-03-08T09:14:23.854Z,97904.36
2018-03-08T09:16:52.128Z,97897.80
2018-03-08T09:19:20.714Z,97896.48
2018-03-08T09:21:49.121Z,97902.97
2018-03-08T09:24:17.434Z,97899.02
2018-03-08T09:26:45.728Z,97884.53
2018-03-08T09:29:14.310Z,97886.80
2018-03-08T09:31:42.741Z,97885.72
2018-03-08T09:34:11.039Z,97875.37
2018-03-08T09:36:40.283Z,97882.19
2018-03-08T09:39:08.556Z,97878.74
2018-03-08T09:41:36.868Z,97886.86
2018-03-08T09:44:05.180Z,97894.03
2018-03-08T09:46:33.800Z,97881.40
2018-03-08T09:49:02.056Z,97886.01
2018-03-08T09:51:30.341Z,97886.14
2018-03-08T09:53:58.757Z,97873.70
2018-03-08T09:56:27.116Z,97881.72
2018-03-08T09:58:55.590Z,97884.89
2018-03-08T10:01:26.256Z,97889.30
2018-03-08T10:03:54.520Z,97888.01
2018-03-08T10:06:22.808Z,97888.25
2018-03-08T10:08:51.124Z,97886.31
2018-03-08T10:11:19.432Z,97891.70
2018-03-08T10:13:47.721Z,97892.47
2018-03-08T10:16:16.563Z,97886.86
2018-03-08T10:18:45.172Z,97879.76
2018-03-08T10:21:13.441Z,97879.45
2018-03-08T10:23:41.777Z,97868.94
2018-03-08T10:26:10.169Z,97874.41
2018-03-08T10:28:38.458Z,97869.25
2018-03-08T10:31:07.215Z,97866.28
2018-03-08T10:33:35.524Z,97854.53
2018-03-08T10:36:03.812Z,97850.02
2018-03-08T10:38:32.278Z,97855.08
2018-03-08T10:41:00.609Z,97845.89
2018-03-08T10:43:28.908Z,97849.98
2018-03-08T10:45:57.191Z,97835.22
2018-03-08T10:48:25.563Z,97839.24
2018-03-08T10:50:53.979Z,97837.33
2018-03-08T10:53:22.329Z,97826.34
2018-03-08T10:55:50.633Z,97831.16
2018-03-08T10:58:19.068Z,97832.02
2018-03-08T11:00:54.227Z,97832.61
2018-03-08T11:03:29.593Z,97839.23
2018-03-08T11:05:57.893Z,97835.55
2018-03-08T11:08:26.567Z,97825.88
2018-03-08T11:10:54.897Z,97823.08
2018-03-08T11:13:23.547Z,97825.88
2018-03-08T11:15:51.955Z,97820.34
2018-03-08T11:18:20.558Z,97825.22
2018-03-08T11:20:49.022Z,97815.79
2018-03-08T11:23:17.367Z,97809.91
2018-03-08T11:25:45.628Z,97791.05
2018-03-08T11:28:13.946Z,97801.70
2018-03-08T11:30:42.224Z,97798.53
2018-03-08T11:33:10.544Z,97787.61
2018-03-08T11:35:38.852Z,97798.26
2018-03-08T11:38:07.751Z,97784.16
2018-03-08T11:40:36.119Z,97783.98
2018-03-08T11:43:05.041Z,97764.95
2018-03-08T11:45:33.570Z,97763.39
2018-03-08T11:48:01.880Z,97776.08
2018-03-08T11:50:30.358Z,97764.23
2018-03-08T11:52:58.648Z,97759.53
2018-03-08T11:55:26.960Z,97761.19
2018-03-08T11:57:55.250Z,97758.11
2018-03-08T12:00:23.568Z,97753.50
2018-03-08T12:02:51.878Z,97749.00
2018-03-08T12:05:20.997Z,97734.94
2018-03-08T12:07:49.253Z,97732.52
2018-03-08T12:10:17.609Z,97738.23
2018-03-08T12:12:45.899Z,97734.08
2018-03-08T12:15:14.265Z,97719.05
2018-03-08T12:17:42.596Z,97722.67
2018-03-08T12:20:10.911Z,97710.44
2018-03-08T12:22:39.344Z,97704.56
2018-03-08T12:25:07.647Z,97717.77
2018-03-08T12:27:35.942Z,97709.45
2018-03-08T12:30:04.963Z,97677.83
2018-03-08T12:32:33.353Z,97701.09
2018-03-08T12:35:01.657Z,97695.50
2018-03-08T12:37:29.968Z,97692.52
2018-03-08T12:39:58.257Z,97681.47
2018-03-08T12:42:27.543Z,97685.20
2018-03-08T12:44:55.896Z,97682.80
2018-03-08T12:47:24.188Z,97680.02
2018-03-08T12:49:52.517Z,97696.25
2018-03-08T12:52:20.804Z,97668.86
2018-03-08T12:54:49.145Z,97654.07
2018-03-08T12:57:17.517Z,97668.23
2018-03-08T12:59:45.729Z,97670.18
2018-03-08T13:02:14.078Z,97676.81
2018-03-08T13:04:42.460Z,97666.06
2018-03-08T13:07:10.767Z,97670.26
2018-03-08T13:09:39.018Z,97663.13
2018-03-08T13:12:07.692Z,97653.03
2018-03-08T13:14:37.682Z,97656.53
2018-03-08T13:17:06.000Z,97656.59
2018-03-08T13:19:34.289Z,97650.67
2018-03-08T13:22:02.622Z,97631.37
2018-03-08T13:24:31.030Z,97648.32
2018-03-08T13:26:59.329Z,97641.89
2018-03-08T13:29:27.596Z,97640.47
2018-03-08T13:31:55.877Z,97647.42
2018-03-08T13:34:25.361Z,97645.17
2018-03-08T13:36:53.644Z,97635.09
2018-03-08T13:39:21.932Z,97636.48
2018-03-08T13:41:51.127Z,97634.14
2018-03-08T13:44:19.602Z,97627.22
2018-03-08T13:46:47.985Z,97631.52
2018-03-08T13:49:28.061Z,97615.35
2018-03-08T13:51:56.343Z,97600.16
2018-03-08T13:54:24.660Z,97603.14
2018-03-08T13:56:52.912Z,97601.03
2018-03-08T13:59:21.473Z,97596.98
2018-03-08T14:01:49.739Z,97592.28
2018-03-08T14:04:18.720Z,97599.38
2018-03-08T14:06:47.020Z,97588.56
2018-03-08T14:09:15.431Z,97582.63
2018-03-08T14:11:43.720Z,97580.30
2018-03-08T14:14:12.335Z,97589.58
2018-03-08T14:16:40.620Z,97577.58
2018-03-08T14:19:08.949Z,97575.00
2018-03-08T14:21:37.254Z,97583.25
2018-03-08T14:24:05.598Z,97584.34
2018-03-08T14:26:34.766Z,97573.34
2018-03-08T14:29:03.056Z,97576.84
2018-03-08T14:31:31.345Z,97573.00
2018-03-08T14:33:59.660Z,97583.15
2018-03-08T14:36:27.961Z,97571.39
2018-03-08T14:38:56.273Z,97568.81
2018-03-08T14:41:24.596Z,97556.39
2018-03-08T14:43:52.976Z,97569.11
2018-03-08T14:46:21.308Z,97579.90
2018-03-08T14:48:49.583Z,97556.86
2018-03-08T14:51:17.908Z,97548.67
2018-03-08T14:53:47.227Z,97555.84
2018-03-08T14:56:15.620Z,97545.56
2018-03-08T14:58:43.879Z,97538.80
2018-03-08T15:01:12.193Z,97536.27
2018-03-08T15:03:40.457Z,97534.96
2018-03-08T15:06:08.776Z,97527.42
2018-03-08T15:08:37.103Z,97520.34
2018-03-08T15:11:05.427Z,97521.65
2018-03-08T15:13:33.755Z,97517.43
2018-03-08T15:16:02.144Z,97513.22
2018-03-08T15:18:30.427Z,97510.30
2018-03-08T15:20:58.803Z,97517.86
2018-03-08T15:23:27.076Z,97501.16
2018-03-08T15:25:55.441Z,97482.46
2018-03-08T15:28:23.814Z,97499.45
2018-03-08T15:30:52.169Z,97495.62
2018-03-08T15:33:20.467Z,97497.66
2018-03-08T15:35:48.782Z,97488.38
2018-03-08T15:38:17.152Z,97483.16
2018-03-08T15:40:45.436Z,97481.05
2018-03-08T15:43:13.778Z,97481.83
2018-03-08T15:45:42.063Z,97476.60
2018-03-08T15:48:10.553Z,97482.22
2018-03-08T15:50:40.717Z,97456.52
2018-03-08T15:53:09.062Z,97484.80
2018-03-08T15:55:38.184Z,97485.66
2018-03-08T15:58:06.474Z,97467.11
2018-03-08T16:00:34.793Z,97502.31
2018-03-08T16:03:03.187Z,97480.75
2018-03-08T16:05:31.540Z,97473.88
2018-03-08T16:11:15.915Z,97466.39
2018-03-08T16:13:44.225Z,97466.06
2018-03-08T16:16:12.507Z,97455.25
2018-03-08T16:18:40.824Z,97468.63
2018-03-08T16:21:09.083Z,97475.33
2018-03-08T16:23:37.428Z,97465.86
2018-03-08T16:26:05.844Z,97474.62
2018-03-08T16:28:34.157Z,97482.73
2018-03-08T16:31:02.501Z,97486.55
2018-03-08T16:33:30.816Z,97474.92
2018-03-08T16:35:59.207Z,97466.91
2018-03-08T16:38:27.447Z,97474.70
2018-03-08T16:40:55.750Z,97471.13
2018-03-08T16:43:24.174Z,97469.11
2018-03-08T16:45:52.513Z,97464.91
2018-03-08T16:48:20.838Z,97480.25
2018-03-08T16:50:49.199Z,97467.38
2018-03-08T16:53:17.555Z,97471.21
2018-03-08T16:55:45.858Z,97468.95
2018-03-08T16:58:14.454Z,97472.45
2018-03-08T17:00:42.771Z,97475.50
2018-03-08T17:03:11.114Z,97488.25
2018-03-08T17:05:39.435Z,97474.84
2018-03-08T17:08:07.702Z,97474.16
2018-03-08T17:10:36.033Z,97473.43
2018-03-08T17:13:04.326Z,97478.87
2018-03-08T17:15:32.644Z,97480.92
2018-03-08T17:18:00.971Z,97485.10
2018-03-08T17:20:29.292Z,97473.34
2018-03-08T17:22:57.608Z,97478.93
2018-03-08T17:25:25.950Z,97485.64
2018-03-08T17:27:54.233Z,97491.03
2018-03-08T17:30:22.552Z,97498.31
2018-03-08T17:32:50.919Z,97497.11
2018-03-08T17:35:19.285Z,97506.28
2018-03-08T17:37:47.575Z,97515.47
2018-03-08T17:40:15.872Z,97528.30
2018-03-08T17:42:44.174Z,97540.80
2018-03-08T17:45:12.508Z,97542.31
2018-03-08T17:47:40.815Z,97552.70
2018-03-08T17:50:09.099Z,97544.30
2018-03-08T17:52:37.412Z,97575.64
2018-03-08T17:55:05.767Z,97582.67
2018-03-08T17:57:34.107Z,97595.90
2018-03-08T18:00:02.502Z,97612.45
2018-03-08T18:02:30.890Z,97621.38
2018-03-08T18:04:59.373Z,97638.00
2018-03-08T18:07:27.642Z,97637.38
2018-03-08T18:09:56.527Z,97666.49
2018-03-08T18:12:24.827Z,97652.81
2018-03-08T18:14:53.100Z,97669.68
2018-03-08T18:17:21.417Z,97659.45
2018-03-08T18:19:49.739Z,97686.97
2018-03-08T18:22:19.009Z,97692.78
2018-03-08T18:24:47.280Z,97698.45
2018-03-08T18:27:15.624Z,97700.34
2018-03-08T18:29:43.924Z,97713.63
2018-03-08T18:32:12.508Z,97727.81
2018-03-08T18:34:40.785Z,97725.61
2018-03-08T18:37:09.229Z,97736.63
2018-03-08T18:39:37.552Z,97751.59
2018-03-08T18:42:05.809Z,97751.89
2018-03-08T18:44:34.128Z,97746.16
2018-03-08T18:47:02.450Z,97747.23
2018-03-08T18:49:30.775Z,97757.22
2018-03-08T18:51:59.088Z,97750.79
2018-03-08T18:54:27.395Z,97742.78
2018-03-08T18:56:55.660Z,97748.02
2018-03-08T18:59:23.956Z,97753.73
2018-03-08T19:01:52.210Z,97755.56
2018-03-08T19:04:20.504Z,97748.36
2018-03-08T19:06:48.771Z,97747.89
2018-03-08T19:09:17.099Z,97745.38
2018-03-08T19:11:45.370Z,97756.22
2018-03-08T19:14:13.684Z,97761.86
2018-03-08T19:16:41.988Z,97771.58
2018-03-08T19:21:37.663Z,97790.61
2018-03-08T19:24:06.042Z,97789.19
2018-03-08T19:26:34.352Z,97800.73
2018-03-08T19:29:02.646Z,97811.11
2018-03-08T19:31:30.930Z,97821.11
2018-03-08T19:33:59.188Z,97854.48
2018-03-08T19:36:27.489Z,97845.88
2018-03-08T19:38:56.612Z,97856.11
2018-03-08T19:41:24.942Z,97857.97
2018-03-08T19:43:53.217Z,97859.86
2018-03-08T19:46:21.512Z,97872.81
2018-03-08T19:48:49.848Z,97887.55
2018-03-08T19:51:18.139Z,97909.78
2018-03-08T19:53:46.428Z,97905.61
2018-03-08T19:56:14.731Z,97910.13
2018-03-08T19:58:43.055Z,97916.28
2018-03-08T20:01:11.363Z,97920.76
2018-03-08T20:03:39.665Z,97899.61
2018-03-08T20:06:07.958Z,97942.52
2018-03-08T20:08:36.207Z,97953.39
2018-03-08T20:11:05.282Z,97957.09
2018-03-08T20:13:33.560Z,97963.95
2018-03-08T20:16:01.874Z,97971.95
2018-03-08T20:18:30.126Z,97981.66
2018-03-08T20:20:58.781Z,97968.55
2018-03-08T20:23:27.910Z,97973.64
2018-03-08T20:25:57.151Z,97990.98
2018-03-08T20:28:25.487Z,97985.47
2018-03-08T20:30:53.873Z,98000.28
2018-03-08T20:33:22.133Z,98001.83
2018-03-08T20:35:50.418Z,97983.32
2018-03-08T20:38:18.728Z,97985.94
2018-03-08T20:40:47.263Z,97996.96
2018-03-08T20:43:15.652Z,98003.66
2018-03-08T20:45:43.949Z,98002.23
2018-03-08T20:48:12.257Z,97981.20
2018-03-08T20:50:41.249Z,97975.84
2018-03-08T20:53:09.586Z,97980.33
2018-03-08T20:55:37.881Z,97973.36
2018-03-08T20:58:06.180Z,97980.30
2018-03-08T21:00:34.458Z,97980.69
2018-03-08T21:03:02.720Z,97990.41
2018-03-08T21:05:30.997Z,98005.94
2018-03-08T21:07:59.309Z,97989.37
2018-03-08T21:10:27.683Z,98010.89
2018-03-08T21:12:56.004Z,98027.17
2018-03-08T21:15:24.270Z,98031.91
2018-03-08T21:17:52.596Z,98039.48
2018-03-08T21:20:20.861Z,98036.08
2018-03-08T21:22:49.208Z,98045.49
2018-03-08T21:25:17.477Z,98047.75
2018-03-08T21:27:45.782Z,98049.03
2018-03-08T21:30:14.054Z,98049.43
2018-03-08T21:32:42.343Z,98054.91
2018-03-08T21:35:10.664Z,98027.03
2018-03-08T21:37:38.929Z,98041.84
2018-03-08T21:40:07.254Z,98048.39
2018-03-08T21:42:35.562Z,98047.91
2018-03-08T21:45:03.862Z,98070.91
2018-03-08T21:47:32.157Z,98071.14
2018-03-08T21:50:00.495Z,98078.38
2018-03-08T21:52:28.844Z,98070.66
2018-03-08T21:54:57.138Z,98064.11
2018-03-08T21:57:25.404Z,98062.92
2018-03-08T21:59:53.729Z,98059.33
2018-03-08T22:02:22.035Z,98068.36
2018-03-08T22:04:50.333Z,98057.55
2018-03-08T22:07:18.610Z,98065.31
2018-03-08T22:09:46.864Z,98058.64
2018-03-08T22:12:15.190Z,98063.52
2018-03-08T22:14:43.439Z,98056.47
2018-03-08T22:17:11.717Z,98069.28
2018-03-08T22:19:40.053Z,98074.63
2018-03-08T22:22:08.287Z,98074.28
2018-03-08T22:24:36.600Z,98078.63
2018-03-08T22:27:05.236Z,98069.80
2018-03-08T22:29:33.521Z,98071.38
2018-03-08T22:32:02.726Z,98093.66
2018-03-08T22:34:31.113Z,98098.52
2018-03-08T22:36:59.371Z,98090.27
2018-03-08T22:39:27.648Z,98080.57
2018-03-08T22:41:55.939Z,98089.72
2018-03-08T22:44:24.211Z,98084.07
2018-03-08T22:46:52.530Z,98082.95
2018-03-08T22:49:20.784Z,98073.34
2018-03-08T22:51:49.072Z,98077.78
2018-03-08T22:54:17.316Z,98070.41
2018-03-08T22:56:45.616Z,98058.52
2018-03-08T22:59:13.896Z,98066.73
2018-03-08T23:04:57.035Z,98075.97
2018-03-08T23:07:25.361Z,98086.45
2018-03-08T23:09:53.705Z,98098.66
2018-03-08T23:12:22.025Z,98105.22
2018-03-08T23:14:50.298Z,98106.69
2018-03-08T23:17:18.626Z,98093.69
2018-03-08T23:19:46.899Z,98101.98
2018-03-08T23:22:15.225Z,98105.66
2018-03-08T23:24:43.489Z,98071.14
2018-03-08T23:27:11.789Z,98074.75
2018-03-08T23:29:40.039Z,98075.80
2018-03-08T23:32:08.375Z,98094.15
2018-03-08T23:34:36.659Z,98100.95
2018-03-08T23:37:04.979Z,98120.10
2018-03-08T23:39:33.826Z,98118.85
2018-03-08T23:42:02.142Z,98109.33
2018-03-08T23:44:30.454Z,98119.19
2018-03-08T23:46:58.801Z,98124.97
2018-03-08T23:49:27.091Z,98128.42
2018-03-08T23:51:55.372Z,98133.77
2018-03-08T23:54:23.660Z,98131.77
2018-03-08T23:56:51.956Z,98131.69
2018-03-08T23:59:20.257Z,98144.27
